Time;durP1;ratioP1;P1;durP2;ratioP2;P2;SDS_P1;SDS_P2;PMS_P1;PMS_P2;Temp;Humidity;BMP_temperature;BMP_pressure;BME280_temperature;BME280_humidity;BME280_pressure;Samples;Min_cycle;Max_cycle;Signal;HPM_P1;HPM_P2
2022/05/11 00:00:33;;;;;;;1.30;1.02;;;18.50;59.20;;;;;;5050822;28;20040;-74
2022/05/11 00:02:58;;;;;;;1.33;1.17;;;18.60;59.20;;;;;;5050981;28;20021;-74
2022/05/11 00:05:24;;;;;;;1.95;1.20;;;18.60;59.10;;;;;;5051521;28;20218;-74
2022/05/11 00:07:50;;;;;;;1.10;1.00;;;18.60;59.20;;;;;;5051274;28;20104;-74
2022/05/11 00:10:15;;;;;;;2.10;1.20;;;18.60;59.10;;;;;;5050140;28;20025;-73
2022/05/11 00:12:45;;;;;;;1.95;1.10;;;18.60;59.10;;;;;;5050360;28;20438;-73
2022/05/11 00:15:12;;;;;;;2.42;1.40;;;18.60;59.10;;;;;;5050028;28;20029;-73
2022/05/11 00:17:37;;;;;;;3.80;1.30;;;18.60;59.10;;;;;;5050449;28;20052;-73
2022/05/11 00:20:06;;;;;;;2.38;1.27;;;18.60;59.00;;;;;;5050206;28;20391;-72
2022/05/11 00:22:32;;;;;;;1.40;1.30;;;18.60;59.00;;;;;;5050472;28;20021;-73
2022/05/11 00:24:58;;;;;;;2.65;1.42;;;18.70;59.00;;;;;;5050610;28;20062;-73
2022/05/11 00:27:23;;;;;;;1.30;1.20;;;18.60;59.00;;;;;;5050361;28;20022;-73
2022/05/11 00:29:49;;;;;;;2.40;1.13;;;18.70;59.00;;;;;;5050597;28;20025;-73
2022/05/11 00:32:14;;;;;;;1.77;1.20;;;18.60;59.10;;;;;;5050800;28;20040;-73
2022/05/11 00:34:40;;;;;;;1.75;1.20;;;18.60;59.20;;;;;;5050554;28;20036;-72
2022/05/11 00:37:05;;;;;;;1.75;1.30;;;18.50;59.30;;;;;;5050099;28;20426;-72
2022/05/11 00:39:34;;;;;;;1.60;1.30;;;18.50;59.70;;;;;;5050818;28;20029;-73
2022/05/11 00:42:01;;;;;;;1.80;1.30;;;18.50;59.60;;;;;;5050163;28;20013;-73
2022/05/11 00:44:27;;;;;;;2.13;1.30;;;18.40;59.50;;;;;;5051682;28;20486;-73
2022/05/11 00:47:03;;;;;;;3.25;1.70;;;18.40;59.60;;;;;;5051258;28;20033;-73
2022/05/11 00:49:36;;;;;;;1.92;1.60;;;18.30;60.00;;;;;;5051018;28;20025;-74
2022/05/11 00:52:14;;;;;;;2.53;1.40;;;18.30;60.10;;;;;;5051228;28;20055;-73
2022/05/11 00:54:45;;;;;;;2.80;1.73;;;18.30;60.20;;;;;;5050278;28;20083;-73
2022/05/11 00:57:22;;;;;;;2.45;1.52;;;18.20;60.50;;;;;;5050845;28;20021;-74
2022/05/11 00:59:50;;;;;;;1.55;1.27;;;18.10;60.50;;;;;;5050094;28;20518;-72
2022/05/11 01:02:16;;;;;;;3.47;1.80;;;18.10;60.50;;;;;;5050471;28;20025;-72
2022/05/11 01:04:43;;;;;;;3.55;1.70;;;18.10;60.60;;;;;;5046810;28;20030;-73
2022/05/11 01:07:11;;;;;;;2.28;1.40;;;18.10;60.80;;;;;;5043248;28;20033;-73
2022/05/11 01:09:36;;;;;;;2.15;1.48;;;18.00;60.80;;;;;;5049024;28;20055;-73
2022/05/11 01:12:07;;;;;;;4.07;1.77;;;18.00;61.00;;;;;;5048731;28;20053;-72
2022/05/11 01:14:35;;;;;;;2.30;1.67;;;18.00;61.30;;;;;;5047783;28;20029;-72
2022/05/11 01:17:01;;;;;;;2.30;1.85;;;17.90;61.30;;;;;;5050896;28;20095;-73
2022/05/11 01:19:31;;;;;;;2.08;1.88;;;17.90;61.30;;;;;;5048946;28;20468;-73
2022/05/11 01:22:32;;;;;;;2.20;1.52;;;17.90;61.50;;;;;;5049238;28;20539;-72
2022/05/11 01:24:58;;;;;;;3.50;1.42;;;17.90;61.50;;;;;;5047757;28;20079;-72
2022/05/11 01:27:27;;;;;;;2.55;1.92;;;17.90;61.30;;;;;;5048890;28;20033;-73
2022/05/11 01:29:54;;;;;;;1.75;1.50;;;17.90;61.10;;;;;;5049451;28;20434;-73
2022/05/11 01:32:21;;;;;;;1.90;1.52;;;17.90;61.10;;;;;;5049176;28;20124;-73
2022/05/11 01:34:52;;;;;;;3.60;2.00;;;18.00;61.00;;;;;;5048245;28;20025;-73
2022/05/11 01:37:18;;;;;;;2.45;1.60;;;18.00;61.00;;;;;;5048409;28;20025;-73
2022/05/11 01:39:44;;;;;;;5.10;2.40;;;18.00;60.80;;;;;;5054629;28;20075;-73
2022/05/11 01:42:11;;;;;;;3.67;1.83;;;17.90;60.90;;;;;;5054611;28;20050;-74
2022/05/11 01:44:36;;;;;;;3.53;1.90;;;17.90;60.90;;;;;;5054273;28;20064;-74
2022/05/11 01:47:02;;;;;;;3.13;2.30;;;17.90;61.10;;;;;;5054823;28;20462;-74
2022/05/11 01:49:28;;;;;;;5.38;2.30;;;17.80;61.30;;;;;;5053301;28;20052;-73
2022/05/11 01:51:54;;;;;;;5.47;2.83;;;17.70;61.30;;;;;;5051736;28;20368;-74
2022/05/11 01:54:19;;;;;;;3.42;2.13;;;17.70;61.50;;;;;;5038558;28;20033;-73
2022/05/11 01:56:45;;;;;;;2.95;2.00;;;17.70;61.50;;;;;;5047727;28;20025;-70
2022/05/11 01:59:11;;;;;;;4.03;2.30;;;17.60;61.40;;;;;;5052586;28;20385;-69
2022/05/11 02:01:40;;;;;;;2.60;2.00;;;17.70;61.30;;;;;;5052423;28;20060;-70
2022/05/11 02:07:49;;;;;;;4.85;2.42;;;17.70;61.30;;;;;;5052571;28;20024;-71
2022/05/11 02:09:37;;;;;;;3.22;2.20;;;17.60;61.30;;;;;;5052276;28;20090;-70
2022/05/11 02:12:03;;;;;;;2.85;2.22;;;17.60;61.10;;;;;;5046511;28;20480;-72
2022/05/11 02:14:28;;;;;;;3.97;2.00;;;17.70;60.90;;;;;;5059841;28;20037;-71
2022/05/11 02:16:54;;;;;;;2.65;1.80;;;17.70;60.80;;;;;;5051322;28;20021;-71
2022/05/11 02:19:20;;;;;;;2.22;1.65;;;17.70;60.60;;;;;;5051673;28;20025;-70
2022/05/11 02:21:46;;;;;;;2.40;2.15;;;17.80;60.60;;;;;;5052189;28;20021;-70
2022/05/11 02:24:12;;;;;;;2.67;2.00;;;17.80;60.60;;;;;;5051945;28;20636;-70
2022/05/11 02:26:37;;;;;;;4.57;2.70;;;17.80;60.50;;;;;;5049118;28;20086;-71
2022/05/11 02:29:03;;;;;;;3.05;2.22;;;17.70;60.50;;;;;;5037781;28;20074;-70
2022/05/11 02:31:28;;;;;;;3.60;2.15;;;17.70;60.50;;;;;;5051762;28;20060;-72
2022/05/11 02:33:54;;;;;;;2.53;1.90;;;17.70;60.50;;;;;;5051991;28;20064;-70
2022/05/11 02:36:19;;;;;;;3.50;1.90;;;17.70;60.40;;;;;;5051357;28;20025;-72
2022/05/11 02:38:45;;;;;;;2.25;1.80;;;17.80;60.30;;;;;;5051640;28;20029;-70
2022/05/11 02:41:10;;;;;;;3.00;1.90;;;17.80;60.30;;;;;;5051631;28;20118;-70
2022/05/11 02:43:36;;;;;;;2.78;1.95;;;17.80;60.10;;;;;;5051761;28;20027;-71
2022/05/11 02:46:01;;;;;;;2.42;1.88;;;17.80;60.10;;;;;;5042012;28;20103;-71
2022/05/11 02:48:31;;;;;;;2.92;2.20;;;17.90;60.10;;;;;;5049896;28;20097;-71
2022/05/11 02:50:58;;;;;;;3.35;2.20;;;17.80;60.00;;;;;;5051120;28;20733;-70
2022/05/11 02:53:26;;;;;;;3.10;2.00;;;17.80;60.00;;;;;;5049774;28;20032;-71
2022/05/11 02:55:53;;;;;;;2.50;1.88;;;17.80;60.00;;;;;;5049988;28;20029;-71
2022/05/11 02:58:22;;;;;;;2.70;1.90;;;17.80;60.00;;;;;;5052656;28;20033;-71
2022/05/11 03:00:51;;;;;;;2.88;1.70;;;17.80;59.90;;;;;;5049355;28;20033;-72
2022/05/11 03:03:18;;;;;;;2.50;1.90;;;17.80;59.80;;;;;;5051238;28;20039;-71
2022/05/11 03:05:45;;;;;;;3.30;1.80;;;17.80;60.00;;;;;;5050838;28;20029;-72
2022/05/11 03:08:11;;;;;;;3.38;1.90;;;17.80;59.90;;;;;;5050906;28;20023;-72
2022/05/11 03:10:39;;;;;;;3.08;1.98;;;17.70;59.90;;;;;;5050400;28;20096;-74
2022/05/11 03:13:05;;;;;;;2.47;2.00;;;17.70;59.90;;;;;;5053429;28;20082;-71
2022/05/11 03:15:31;;;;;;;2.92;2.00;;;17.70;59.90;;;;;;5047796;28;20400;-71
2022/05/11 03:17:57;;;;;;;3.42;2.20;;;17.70;59.90;;;;;;5042852;28;20419;-72
2022/05/11 03:20:23;;;;;;;2.40;1.92;;;17.70;59.90;;;;;;5050854;28;20029;-71
2022/05/11 03:22:52;;;;;;;3.88;2.65;;;17.70;59.90;;;;;;5051017;28;20486;-72
2022/05/11 03:25:19;;;;;;;3.15;2.65;;;17.60;60.10;;;;;;5050981;28;20395;-71
2022/05/11 03:27:45;;;;;;;4.28;2.25;;;17.60;60.20;;;;;;5049339;28;20055;-70
2022/05/11 03:30:12;;;;;;;2.85;2.03;;;17.50;60.30;;;;;;5051113;28;20029;-70
2022/05/11 03:35:21;;;;;;;4.05;1.80;;;17.60;60.30;;;;;;5051180;28;20064;-75
2022/05/11 03:37:47;;;;;;;3.35;2.53;;;17.60;60.20;;;;;;5050637;28;20297;-72
2022/05/11 03:40:12;;;;;;;3.20;2.40;;;17.60;60.50;;;;;;5050956;28;20017;-71
2022/05/11 03:42:39;;;;;;;3.25;2.70;;;17.50;60.50;;;;;;5050688;28;20670;-72
2022/05/11 03:45:11;;;;;;;3.05;2.28;;;17.50;60.90;;;;;;5050434;28;20041;-70
2022/05/11 03:47:37;;;;;;;3.38;2.50;;;17.40;61.10;;;;;;5050490;28;20029;-71
2022/05/11 03:50:03;;;;;;;4.65;2.50;;;17.50;61.20;;;;;;5050360;28;20460;-70
2022/05/11 03:52:29;;;;;;;3.70;2.50;;;17.50;61.20;;;;;;5050532;28;20075;-69
2022/05/11 03:54:55;;;;;;;3.28;2.58;;;17.50;61.10;;;;;;5048945;28;20423;-69
2022/05/11 03:57:21;;;;;;;3.97;2.80;;;17.50;61.20;;;;;;5050882;28;20096;-72
2022/05/11 03:59:46;;;;;;;4.78;3.10;;;17.40;61.40;;;;;;5049984;28;20049;-71
2022/05/11 04:02:12;;;;;;;3.38;2.40;;;17.40;61.60;;;;;;5050188;28;20060;-70
2022/05/11 04:04:37;;;;;;;3.75;2.60;;;17.40;61.50;;;;;;5050335;28;20483;-69
2022/05/11 04:07:03;;;;;;;3.58;2.80;;;17.40;61.60;;;;;;5050193;28;20017;-70
2022/05/11 04:09:29;;;;;;;4.32;2.75;;;17.40;61.70;;;;;;5050588;28;20036;-70
2022/05/11 04:11:54;;;;;;;3.55;2.40;;;17.40;61.90;;;;;;5050067;28;20038;-71
2022/05/11 04:14:20;;;;;;;3.40;2.65;;;17.40;61.70;;;;;;5049019;28;20033;-69
2022/05/11 04:16:47;;;;;;;3.50;3.00;;;17.40;61.70;;;;;;5049777;28;20024;-68
2022/05/11 04:19:13;;;;;;;3.88;2.60;;;17.40;62.00;;;;;;5049951;28;20641;-71
2022/05/11 04:21:39;;;;;;;2.90;2.30;;;17.40;62.00;;;;;;5045540;28;20028;-73
2022/05/11 04:24:04;;;;;;;5.85;3.65;;;17.40;62.00;;;;;;5045017;28;20073;-70
2022/05/11 04:26:32;;;;;;;3.25;2.33;;;17.40;62.10;;;;;;5049048;28;20057;-71
2022/05/11 04:28:57;;;;;;;3.80;2.70;;;17.40;62.10;;;;;;5045780;28;20712;-70
2022/05/11 04:31:23;;;;;;;3.35;2.50;;;17.40;62.00;;;;;;5049467;28;20139;-71
2022/05/11 04:33:50;;;;;;;3.10;2.50;;;17.50;62.00;;;;;;5049390;28;20033;-71
2022/05/11 04:36:16;;;;;;;3.70;2.15;;;17.40;61.90;;;;;;5049158;28;20033;-71
2022/05/11 04:38:42;;;;;;;3.60;2.30;;;17.50;61.80;;;;;;5048526;28;20606;-71
2022/05/11 04:41:07;;;;;;;2.70;1.75;;;17.50;61.80;;;;;;5048971;28;20151;-73
2022/05/11 04:43:33;;;;;;;2.53;2.20;;;17.50;61.60;;;;;;5048810;28;20505;-72
2022/05/11 04:45:59;;;;;;;3.35;2.22;;;17.50;61.60;;;;;;5048898;28;20110;-71
2022/05/11 04:48:25;;;;;;;5.32;2.88;;;17.60;61.70;;;;;;5048892;28;20037;-69
2022/05/11 04:50:51;;;;;;;3.30;2.20;;;17.60;61.70;;;;;;5048080;28;20423;-74
2022/05/11 04:53:18;;;;;;;3.65;2.40;;;17.60;61.70;;;;;;5046340;28;20115;-70
2022/05/11 04:55:45;;;;;;;3.20;2.28;;;17.60;61.70;;;;;;5038549;28;20054;-69
2022/05/11 04:58:10;;;;;;;3.42;2.08;;;17.60;61.50;;;;;;5029192;28;20025;-69
2022/05/11 05:00:36;;;;;;;3.42;2.10;;;17.60;61.40;;;;;;5029603;28;20032;-71
2022/05/11 05:03:06;;;;;;;2.35;2.05;;;17.70;61.30;;;;;;5029436;28;20095;-71
2022/05/11 05:05:32;;;;;;;2.97;2.08;;;17.70;61.20;;;;;;5035337;28;20029;-72
2022/05/11 05:07:57;;;;;;;2.67;2.42;;;17.70;61.30;;;;;;5029737;28;20029;-71
2022/05/11 05:10:23;;;;;;;3.08;2.03;;;17.70;61.30;;;;;;5035663;28;20114;-70
2022/05/11 05:12:49;;;;;;;2.22;1.95;;;17.60;61.30;;;;;;5050542;28;20499;-70
2022/05/11 05:15:16;;;;;;;2.33;1.95;;;17.70;61.30;;;;;;5056726;28;20162;-71
2022/05/11 05:17:42;;;;;;;3.70;2.20;;;17.70;61.30;;;;;;5054761;28;20024;-69
2022/05/11 05:20:09;;;;;;;2.53;2.00;;;17.70;61.30;;;;;;5038138;28;20038;-69
2022/05/11 05:22:35;;;;;;;3.00;2.20;;;17.80;61.20;;;;;;5033250;28;20525;-70
2022/05/11 05:25:01;;;;;;;4.15;2.45;;;17.80;61.10;;;;;;5032154;28;20017;-69
2022/05/11 05:27:26;;;;;;;3.22;2.05;;;17.80;61.10;;;;;;5041904;28;20029;-71
2022/05/11 05:32:43;;;;;;;3.15;2.22;;;17.90;61.20;;;;;;5053132;28;20051;-71
2022/05/11 05:35:11;;;;;;;3.88;2.08;;;17.80;61.20;;;;;;5052846;28;20109;-70
2022/05/11 05:37:38;;;;;;;2.70;2.33;;;17.90;61.10;;;;;;5052912;28;20019;-71
2022/05/11 05:40:05;;;;;;;3.15;2.35;;;17.80;61.10;;;;;;5041086;28;20021;-70
2022/05/11 05:42:30;;;;;;;2.92;2.58;;;17.80;61.20;;;;;;5049785;28;20016;-69
2022/05/11 05:44:56;;;;;;;2.70;1.98;;;17.80;61.30;;;;;;5035110;28;20490;-69
2022/05/11 05:47:21;;;;;;;3.08;2.00;;;17.70;61.30;;;;;;5050828;28;20036;-70
2022/05/11 05:49:47;;;;;;;3.35;1.90;;;17.80;61.20;;;;;;5042153;28;20507;-70
2022/05/11 05:52:21;;;;;;;3.10;2.30;;;17.90;61.10;;;;;;5033101;28;20083;-70
2022/05/11 05:54:47;;;;;;;2.47;2.00;;;18.20;60.60;;;;;;5033680;28;20037;-70
2022/05/11 05:57:14;;;;;;;2.92;1.88;;;18.70;60.00;;;;;;5052957;28;20025;-69
2022/05/11 05:59:39;;;;;;;2.53;1.80;;;18.90;58.60;;;;;;5034098;28;20045;-70
2022/05/11 06:02:12;;;;;;;2.83;1.88;;;19.30;58.00;;;;;;5032686;28;20091;-71
2022/05/11 06:04:40;;;;;;;3.88;1.90;;;20.00;56.30;;;;;;5044036;28;20475;-72
2022/05/11 06:07:05;;;;;;;2.72;1.80;;;20.50;54.40;;;;;;5052185;28;20517;-71
2022/05/11 06:09:31;;;;;;;2.15;1.73;;;20.70;53.90;;;;;;5051187;28;20108;-71
2022/05/11 06:11:56;;;;;;;2.42;1.60;;;21.70;52.20;;;;;;5033032;28;20037;-71
2022/05/11 06:14:22;;;;;;;1.92;1.30;;;22.10;50.50;;;;;;5045505;28;20028;-71
2022/05/11 06:16:47;;;;;;;3.00;1.83;;;22.10;50.40;;;;;;5054955;28;20116;-70
2022/05/11 06:19:13;;;;;;;3.10;1.80;;;22.80;49.20;;;;;;5045999;28;20391;-71
2022/05/11 06:21:38;;;;;;;4.28;1.60;;;23.20;47.60;;;;;;5047861;28;20025;-72
2022/05/11 06:24:05;;;;;;;2.00;1.38;;;23.50;46.60;;;;;;5050430;28;20021;-70
2022/05/11 06:26:30;;;;;;;2.97;1.80;;;24.00;46.00;;;;;;5060679;28;20078;-70
2022/05/11 06:28:56;;;;;;;3.08;1.77;;;24.30;44.80;;;;;;5048666;28;20029;-70
2022/05/11 06:31:23;;;;;;;3.72;1.60;;;24.40;44.20;;;;;;5040448;28;20068;-71
2022/05/11 06:33:50;;;;;;;2.45;1.55;;;24.50;43.80;;;;;;5045718;28;20037;-70
2022/05/11 06:36:16;;;;;;;3.45;1.67;;;24.50;43.80;;;;;;5037016;28;20152;-73
2022/05/11 06:38:41;;;;;;;3.42;1.48;;;24.30;44.00;;;;;;5031601;28;20079;-72
2022/05/11 06:41:20;;;;;;;3.28;1.23;;;23.70;44.60;;;;;;5040581;28;20535;-71
2022/05/11 06:43:46;;;;;;;3.63;1.70;;;23.40;45.00;;;;;;5042966;28;20025;-71
2022/05/11 06:46:13;;;;;;;4.35;1.65;;;23.70;45.10;;;;;;5052353;28;20100;-70
2022/05/11 06:48:38;;;;;;;2.80;1.50;;;23.20;44.50;;;;;;5036167;28;20033;-70
2022/05/11 06:51:04;;;;;;;4.63;1.65;;;22.60;44.80;;;;;;5045460;28;20395;-69
2022/05/11 06:59:16;;;;;;;3.75;1.38;;;22.20;45.50;;;;;;5030731;28;20026;-70
2022/05/11 07:01:43;;;;;;;3.00;1.33;;;21.90;44.70;;;;;;5046145;28;20079;-70
2022/05/11 07:04:09;;;;;;;2.45;1.23;;;22.00;44.40;;;;;;5031559;28;20022;-71
2022/05/11 07:06:34;;;;;;;2.78;1.33;;;22.20;44.30;;;;;;5032105;28;20472;-71
2022/05/11 07:08:59;;;;;;;3.70;1.35;;;22.40;43.40;;;;;;5042597;28;20025;-70
2022/05/11 07:14:09;;;;;;;2.50;1.30;;;23.30;42.80;;;;;;5031546;28;20133;-72
2022/05/11 07:16:34;;;;;;;2.42;0.90;;;23.40;41.90;;;;;;5034502;28;20533;-71
2022/05/11 07:19:01;;;;;;;4.45;1.25;;;23.40;41.80;;;;;;5044813;28;20441;-71
2022/05/11 07:21:26;;;;;;;3.17;1.50;;;23.30;41.60;;;;;;5046295;28;20028;-72
2022/05/11 07:23:52;;;;;;;3.83;1.25;;;22.90;41.90;;;;;;5041961;28;20025;-71
2022/05/11 07:26:17;;;;;;;3.70;1.25;;;22.60;42.30;;;;;;5034583;28;20075;-71
2022/05/11 07:28:43;;;;;;;2.25;1.00;;;22.30;42.30;;;;;;5031834;28;20552;-71
2022/05/11 07:31:08;;;;;;;3.22;1.10;;;22.10;42.60;;;;;;5038179;28;20394;-72
2022/05/11 07:33:34;;;;;;;2.17;1.00;;;21.90;42.70;;;;;;5038397;28;20037;-71
2022/05/11 07:35:59;;;;;;;2.97;1.10;;;21.50;43.00;;;;;;5048193;28;20103;-70
2022/05/11 07:38:25;;;;;;;2.40;1.05;;;21.50;43.20;;;;;;5050476;28;20121;-71
2022/05/11 07:40:50;;;;;;;3.92;1.10;;;21.50;43.30;;;;;;5049276;28;20033;-71
2022/05/11 07:43:16;;;;;;;3.88;1.10;;;21.60;43.30;;;;;;5053062;28;20043;-70
2022/05/11 07:45:42;;;;;;;3.55;1.00;;;21.50;43.10;;;;;;5043920;28;20116;-70
2022/05/11 07:48:08;;;;;;;3.88;1.00;;;21.50;43.20;;;;;;5051142;28;20033;-71
2022/05/11 07:50:34;;;;;;;2.17;1.17;;;21.40;43.20;;;;;;5046554;28;20037;-70
2022/05/11 07:53:00;;;;;;;3.05;0.95;;;21.20;43.40;;;;;;5047187;28;20037;-71
2022/05/11 07:55:27;;;;;;;3.30;1.23;;;21.10;43.80;;;;;;5048557;28;20584;-70
2022/05/11 08:00:38;;;;;;;3.03;0.80;;;20.80;44.10;;;;;;5048781;28;20115;-71
2022/05/11 08:03:04;;;;;;;3.85;1.05;;;20.70;44.10;;;;;;5049491;28;20056;-71
2022/05/11 08:05:32;;;;;;;2.58;0.77;;;20.60;44.00;;;;;;5046500;28;20080;-71
2022/05/11 08:08:01;;;;;;;2.05;1.02;;;20.50;44.20;;;;;;5047825;28;20039;-70
2022/05/11 08:10:33;;;;;;;2.95;0.93;;;20.50;44.20;;;;;;5047919;28;20025;-70
2022/05/11 08:12:59;;;;;;;;;;;20.60;44.20;;;;;;5048219;28;20037;-69
2022/05/11 08:15:30;;;;;;;1.77;0.80;;;20.60;43.70;;;;;;5049423;28;20283;-70
2022/05/11 08:17:56;;;;;;;2.30;0.80;;;20.60;43.50;;;;;;5047869;28;20025;-73
2022/05/11 08:20:25;;;;;;;4.15;1.17;;;20.70;43.70;;;;;;5047153;28;20126;-69
2022/05/11 08:22:52;;;;;;;2.10;0.90;;;20.90;43.60;;;;;;5044933;28;20035;-70
2022/05/11 08:25:20;;;;;;;2.80;0.82;;;21.00;43.40;;;;;;5046351;28;20040;-71
2022/05/11 08:27:46;;;;;;;3.00;1.10;;;21.10;43.30;;;;;;5049267;28;20028;-70
2022/05/11 08:35:44;;;;;;;2.55;0.90;;;21.40;43.10;;;;;;5042414;28;20044;-70
2022/05/11 08:38:11;;;;;;;2.40;1.00;;;21.50;43.00;;;;;;5039084;28;20379;-70
2022/05/11 08:40:39;;;;;;;4.05;1.10;;;21.50;42.70;;;;;;5039271;28;20022;-71
2022/05/11 08:43:10;;;;;;;3.83;1.30;;;21.40;42.80;;;;;;5039896;28;20034;-71
2022/05/11 08:45:44;;;;;;;4.28;1.10;;;21.40;42.80;;;;;;5043061;28;20044;-70
2022/05/11 08:48:26;;;;;;;4.03;1.00;;;21.40;42.80;;;;;;5048179;28;20033;-70
2022/05/11 08:50:51;;;;;;;5.07;1.10;;;21.30;43.00;;;;;;5045173;28;20091;-71
2022/05/11 08:53:37;;;;;;;2.15;0.88;;;21.40;43.20;;;;;;5048769;28;20496;-71
2022/05/11 08:56:12;;;;;;;3.35;0.98;;;21.40;43.30;;;;;;5048298;28;20048;-72
2022/05/11 08:58:49;;;;;;;2.13;0.85;;;21.50;43.20;;;;;;5047057;28;20025;-71
2022/05/11 09:01:46;;;;;;;5.00;1.17;;;21.40;43.20;;;;;;5047097;28;20078;-70
2022/05/11 09:04:15;;;;;;;2.78;1.00;;;21.60;43.40;;;;;;5047632;28;20037;-70
2022/05/11 09:06:44;;;;;;;3.65;1.10;;;21.60;43.10;;;;;;5049779;28;20475;-70
2022/05/11 09:09:10;;;;;;;3.33;1.00;;;21.70;43.40;;;;;;5049389;28;20028;-70
2022/05/11 09:11:53;;;;;;;2.30;0.90;;;21.80;43.60;;;;;;5053138;28;20032;-70
2022/05/11 09:14:31;;;;;;;4.93;1.27;;;21.90;43.40;;;;;;5052263;28;20040;-71
2022/05/11 09:16:57;;;;;;;2.05;0.90;;;22.00;43.20;;;;;;5050724;28;20104;-71
2022/05/11 09:19:31;;;;;;;2.00;1.20;;;22.10;43.20;;;;;;5050960;28;20107;-72
2022/05/11 09:22:14;;;;;;;4.43;1.50;;;22.10;43.10;;;;;;5053646;28;20048;-72
2022/05/11 09:24:56;;;;;;;3.35;1.48;;;22.20;43.00;;;;;;5062524;28;20546;-71
2022/05/11 09:27:42;;;;;;;3.17;1.23;;;22.10;42.90;;;;;;5054955;28;20032;-71
2022/05/11 09:30:19;;;;;;;8.32;1.70;;;22.10;43.30;;;;;;5062186;28;20025;-69
2022/05/11 09:32:45;;;;;;;4.72;1.65;;;22.10;43.30;;;;;;5058119;28;20108;-70
2022/05/11 09:35:36;;;;;;;4.30;1.63;;;22.20;43.30;;;;;;5068047;28;20449;-71
2022/05/11 09:38:05;;;;;;;2.88;1.30;;;22.20;43.20;;;;;;5043490;28;20032;-70
2022/05/11 09:40:47;;;;;;;3.88;1.38;;;22.20;43.30;;;;;;5058886;28;20112;-71
2022/05/11 09:43:41;;;;;;;5.13;1.40;;;22.20;43.40;;;;;;5069384;28;20047;-71
2022/05/11 09:46:31;;;;;;;5.07;1.55;;;22.10;43.20;;;;;;5057264;28;20013;-70
2022/05/11 09:49:17;;;;;;;3.10;1.40;;;22.10;43.30;;;;;;5053137;28;20028;-71
2022/05/11 09:51:45;;;;;;;4.07;1.33;;;22.10;43.30;;;;;;5033880;28;20067;-71
2022/05/11 09:54:38;;;;;;;2.60;1.30;;;22.00;43.60;;;;;;5032744;28;20030;-71
2022/05/11 09:57:09;;;;;;;3.88;1.55;;;22.10;43.70;;;;;;5053419;28;20025;-70
2022/05/11 09:59:39;;;;;;;4.35;1.40;;;22.20;43.50;;;;;;5050164;28;20033;-70
2022/05/11 10:02:35;;;;;;;4.05;1.65;;;22.30;43.50;;;;;;5041963;28;20683;-68
2022/05/11 10:05:01;;;;;;;4.82;2.10;;;22.30;43.30;;;;;;5043119;28;20029;-70
2022/05/11 10:07:29;;;;;;;2.85;1.40;;;22.30;43.30;;;;;;5045288;28;20084;-70
2022/05/11 10:10:01;;;;;;;2.92;1.30;;;22.20;43.60;;;;;;5042364;28;20375;-69
2022/05/11 10:12:31;;;;;;;2.92;1.30;;;22.30;43.60;;;;;;5043235;28;20025;-69
2022/05/11 10:24:03;;;;;;;3.28;1.30;;;22.50;43.00;;;;;;5041977;28;20490;-72
2022/05/11 10:26:39;;;;;;;3.05;1.60;;;22.60;42.90;;;;;;5044280;28;20021;-69
2022/05/11 10:29:33;;;;;;;4.53;1.60;;;22.70;42.70;;;;;;5042691;28;20025;-69
2022/05/11 10:32:12;;;;;;;4.55;1.50;;;22.70;42.20;;;;;;5041588;28;20112;-71
2022/05/11 10:34:56;;;;;;;2.95;1.55;;;22.70;42.20;;;;;;5043288;28;20029;-69
2022/05/11 10:37:28;;;;;;;2.78;1.40;;;22.70;42.00;;;;;;5046373;28;20394;-70
2022/05/11 10:40:18;;;;;;;3.05;1.52;;;22.70;41.80;;;;;;5045706;28;20025;-70
2022/05/11 10:43:05;;;;;;;1.65;1.10;;;22.70;41.60;;;;;;5036368;28;20151;-70
2022/05/11 10:45:52;;;;;;;3.53;1.40;;;22.80;41.60;;;;;;5042911;28;20540;-72
2022/05/11 10:48:38;;;;;;;3.65;1.50;;;23.00;41.00;;;;;;5040816;28;20043;-70
2022/05/11 10:51:26;;;;;;;4.05;1.60;;;23.10;40.90;;;;;;5046099;28;20478;-69
2022/05/11 10:54:15;;;;;;;4.00;1.50;;;23.30;40.80;;;;;;5041693;28;20090;-69
2022/05/11 10:57:10;;;;;;;2.80;1.35;;;23.30;40.40;;;;;;5043360;28;20099;-71
2022/05/11 11:00:01;;;;;;;3.15;1.30;;;23.30;40.10;;;;;;5050000;28;20140;-69
2022/05/11 11:02:49;;;;;;;2.83;1.10;;;23.30;39.60;;;;;;5038696;28;20029;-70
2022/05/11 11:05:36;;;;;;;2.13;0.93;;;23.30;39.60;;;;;;5043268;28;20044;-70
2022/05/11 11:08:21;;;;;;;4.07;1.10;;;23.40;39.80;;;;;;5047060;28;20028;-70
2022/05/11 11:10:59;;;;;;;3.00;0.95;;;23.50;39.60;;;;;;5061449;28;20032;-70
2022/05/11 11:13:53;;;;;;;4.47;1.30;;;23.60;40.10;;;;;;5042879;28;20055;-69
2022/05/11 11:16:22;;;;;;;2.03;1.13;;;23.70;39.00;;;;;;5041337;28;20498;-70
2022/05/11 11:18:49;;;;;;;2.40;0.90;;;23.80;38.80;;;;;;5039824;28;20115;-69
2022/05/11 11:21:16;;;;;;;4.03;1.10;;;23.90;38.90;;;;;;5047304;28;20017;-69
2022/05/11 11:23:47;;;;;;;2.45;1.13;;;24.10;38.70;;;;;;5046105;28;20490;-69
2022/05/11 11:26:46;;;;;;;2.72;1.17;;;24.20;38.40;;;;;;5041546;28;20034;-70
2022/05/11 11:29:13;;;;;;;5.95;1.25;;;24.20;38.20;;;;;;5042921;28;20033;-71
2022/05/11 11:32:00;;;;;;;2.65;1.00;;;24.20;38.00;;;;;;5043865;28;20479;-71
2022/05/11 11:34:29;;;;;;;3.88;1.10;;;24.20;37.80;;;;;;5046789;28;20029;-69
2022/05/11 11:36:55;;;;;;;4.65;1.08;;;24.20;37.90;;;;;;5046583;28;20032;-71
2022/05/11 11:39:54;;;;;;;2.92;1.00;;;24.30;38.10;;;;;;5047870;28;20546;-71
2022/05/11 11:42:38;;;;;;;5.22;1.33;;;24.50;38.00;;;;;;5045324;28;20691;-71
2022/05/11 11:45:10;;;;;;;3.25;1.02;;;24.50;37.50;;;;;;5043019;28;20120;-70
2022/05/11 11:47:42;;;;;;;3.47;1.00;;;24.60;37.70;;;;;;5046277;28;20398;-70
2022/05/11 11:50:33;;;;;;;4.22;1.40;;;24.60;37.50;;;;;;5042795;28;20116;-70
2022/05/11 11:53:50;;;;;;;4.43;1.27;;;24.60;37.30;;;;;;5043387;28;20104;-71
2022/05/11 11:56:28;;;;;;;3.90;1.60;;;24.60;37.40;;;;;;5032320;28;20496;-70
2022/05/11 11:59:31;;;;;;;3.55;1.27;;;24.50;37.40;;;;;;5041711;28;20029;-70
2022/05/11 12:02:23;;;;;;;2.33;1.17;;;24.60;37.40;;;;;;5050681;28;20044;-71
2022/05/11 12:05:04;;;;;;;3.45;1.27;;;24.70;37.40;;;;;;5057749;28;20021;-69
2022/05/11 12:16:52;;;;;;;4.60;1.77;;;25.20;37.40;;;;;;5033664;28;20036;-71
2022/05/11 12:19:19;;;;;;;3.65;1.40;;;25.30;36.80;;;;;;5039511;28;20142;-70
2022/05/11 12:22:00;;;;;;;4.43;1.77;;;25.40;37.00;;;;;;5045711;28;20052;-70
2022/05/11 12:24:29;;;;;;;4.03;1.70;;;25.20;36.40;;;;;;5040505;28;20033;-72
2022/05/11 12:27:03;;;;;;;3.92;1.20;;;25.00;36.50;;;;;;5039578;28;20025;-69
2022/05/11 12:32:31;;;;;;;4.18;1.63;;;25.30;37.00;;;;;;5039286;28;20064;-69
2022/05/11 12:35:07;;;;;;;1.75;1.10;;;25.70;36.90;;;;;;5039467;28;20029;-69
2022/05/11 12:37:36;;;;;;;3.92;1.77;;;25.80;36.90;;;;;;5044517;28;20151;-71
2022/05/11 12:40:28;;;;;;;5.18;1.55;;;25.60;36.20;;;;;;5044769;28;20029;-70
2022/05/11 12:42:56;;;;;;;3.28;1.30;;;25.50;36.50;;;;;;5043049;28;20037;-70
2022/05/11 12:45:25;;;;;;;5.40;1.60;;;25.60;36.70;;;;;;5045205;28;20021;-71
2022/05/11 12:47:58;;;;;;;5.22;1.70;;;25.60;36.40;;;;;;5050342;28;20033;-71
2022/05/11 12:50:29;;;;;;;3.22;1.40;;;25.50;36.30;;;;;;5049128;28;20021;-69
2022/05/11 12:53:14;;;;;;;4.07;1.75;;;25.60;36.70;;;;;;5042393;28;20028;-70
2022/05/11 12:55:39;;;;;;;5.05;1.73;;;25.80;36.60;;;;;;5039906;28;20511;-70
2022/05/11 12:58:15;;;;;;;3.13;1.30;;;25.80;37.10;;;;;;5041209;28;20041;-69
2022/05/11 13:00:40;;;;;;;4.00;1.52;;;26.10;36.50;;;;;;5039124;28;20022;-71
2022/05/11 13:03:25;;;;;;;3.42;1.50;;;26.20;36.40;;;;;;5043574;28;20547;-70
2022/05/11 13:05:55;;;;;;;4.25;1.70;;;26.20;36.10;;;;;;5042242;28;20117;-70
2022/05/11 13:08:22;;;;;;;4.38;1.55;;;26.20;36.20;;;;;;5042514;28;20035;-70
2022/05/11 13:10:48;;;;;;;2.70;1.30;;;26.40;36.30;;;;;;5040197;28;20060;-72
2022/05/11 13:13:25;;;;;;;5.55;1.90;;;26.50;36.20;;;;;;5041655;28;20026;-70
2022/05/11 13:15:52;;;;;;;5.45;1.77;;;26.60;35.70;;;;;;5045127;28;20037;-70
2022/05/11 13:18:29;;;;;;;4.38;1.58;;;26.60;35.80;;;;;;5046034;28;20032;-70
2022/05/11 13:20:58;;;;;;;3.92;1.33;;;26.80;36.00;;;;;;5043525;28;20099;-69
2022/05/11 13:23:34;;;;;;;3.63;1.75;;;26.90;35.80;;;;;;5045370;28;20139;-70
2022/05/11 13:26:03;;;;;;;6.35;1.80;;;26.80;35.60;;;;;;5042728;28;20033;-69
2022/05/11 13:28:38;;;;;;;3.97;1.50;;;26.80;35.50;;;;;;5038799;28;20188;-70
2022/05/11 13:31:27;;;;;;;3.95;1.48;;;26.70;35.60;;;;;;5046315;28;20071;-71
2022/05/11 13:33:53;;;;;;;3.95;1.80;;;26.80;35.90;;;;;;5053472;28;20032;-70
2022/05/11 13:36:23;;;;;;;3.05;1.63;;;26.80;35.60;;;;;;5048049;28;20045;-70
2022/05/11 13:38:59;;;;;;;3.58;1.58;;;26.80;35.50;;;;;;5040738;28;20484;-70
2022/05/11 13:41:32;;;;;;;5.07;1.67;;;27.00;35.60;;;;;;5041901;28;20531;-70
2022/05/11 13:44:06;;;;;;;3.92;1.88;;;27.00;35.60;;;;;;5049889;28;20021;-71
2022/05/11 13:46:35;;;;;;;3.47;1.50;;;26.90;35.30;;;;;;5040037;28;20082;-71
2022/05/11 13:49:39;;;;;;;6.00;1.67;;;27.10;35.50;;;;;;5041445;28;20025;-70
2022/05/11 13:52:10;;;;;;;6.10;2.05;;;27.20;35.30;;;;;;5035023;28;20376;-71